Woodruff, WI

2:54 PM CST on February 28, 2015 (GMT -0600)
WIDOT | Change Station
CLOSE
Current Station
Personal Weather Station
Location: Minocqua, WI
Elevation: 1621 ft
Nearby Weather Stations

Elev 1621 ft 45.89 °N, 89.68 °W | Updated 20 days ago

Clear
Clear
21 °F
Feels Like 10 °F
N
11
Wind Variable Wind from SSW
Gusts 13 mph

Today
High -- | Low -- °F
--% Chance of Precip.
Yesterday
High -- | Low -- °F
Precip. -- in
6:39 AM 5:43 PM
Waxing Gibbous, 80% visible
Pressure 30.36 in
Visibility 10.0 miles
Clouds Clear
Windchill 10 °F
Dew Point 0 °F
Humidity 41%
Rainfall -999.00 in
Snow Depth Not available.
UV 3 out of 12
Pollen .40 out of 12
Air Quality Not available.
Flu Activity Not available.
METAR KARV 282035Z AUTO 21008KT 10SM CLR M06/M20 A3036 RMK AO2 T10571197

More Conditions Fewer Conditions

Pressure 30.36 in
Visibility 10.0 miles
Clouds Clear
Windchill 10 °F
Dew Point 0 °F
Humidity 41%
Rainfall -999.00 in
Snow Depth Not available.
UV 3 out of 12
Pollen .40 out of 12
Air Quality Not available.
Flu Activity Not available.
METAR KARV 282035Z AUTO 21008KT 10SM CLR M06/M20 A3036 RMK AO2 T10571197

More Conditions Fewer Conditions

10-Day Weather Forecast

Almanac

Astronomy

Feb. 28, 2015 Rise Set
Actual Time
Civil Twilight
Nautical Twilight
Astronomical Twilight
Moon
Length of Visible Light
Length of Day
Tomorrow will be .
, % of the Moon is Illuminated

Today's Extremes

State Highs State Lows

Community

WunderPhotos

Upload Photos

1,801,145 photos uploaded!

WunderBlogs® & News

Nearby

Air Quality

  Air Quality AQ Index Pollutant
Not available.

Snow Depth

Station Depth Elevation

Earthquake Activity

City Distance Mag. Time & Date
Minimum magnitude displayed is 2.5.

Coastal Water Temperatures

Place Temperature

Nearby Weather Stations